sensor_id;sensor_type;location;lat;lon;timestamp;P1;durP1;ratioP1;P2;durP2;ratioP2
12163;SDS011;6145;50.192;10.064;2022-08-14T00:01:57;5.50;;;5.10;;
12163;SDS011;6145;50.192;10.064;2022-08-14T00:04:25;5.60;;;5.20;;
12163;SDS011;6145;50.192;10.064;2022-08-14T00:06:52;6.20;;;5.70;;
12163;SDS011;6145;50.192;10.064;2022-08-14T00:09:18;5.03;;;4.70;;
12163;SDS011;6145;50.192;10.064;2022-08-14T00:11:45;6.10;;;5.70;;
12163;SDS011;6145;50.192;10.064;2022-08-14T00:14:13;5.70;;;5.20;;
12163;SDS011;6145;50.192;10.064;2022-08-14T00:16:40;5.67;;;5.27;;
12163;SDS011;6145;50.192;10.064;2022-08-14T00:19:07;5.83;;;5.43;;
12163;SDS011;6145;50.192;10.064;2022-08-14T00:21:34;5.60;;;5.20;;
12163;SDS011;6145;50.192;10.064;2022-08-14T00:24:01;5.97;;;5.57;;
12163;SDS011;6145;50.192;10.064;2022-08-14T00:26:28;5.60;;;5.20;;
12163;SDS011;6145;50.192;10.064;2022-08-14T00:28:55;5.80;;;5.30;;
12163;SDS011;6145;50.192;10.064;2022-08-14T00:31:24;5.70;;;5.30;;
12163;SDS011;6145;50.192;10.064;2022-08-14T00:33:51;5.80;;;5.30;;
12163;SDS011;6145;50.192;10.064;2022-08-14T00:36:19;5.60;;;5.20;;
12163;SDS011;6145;50.192;10.064;2022-08-14T00:38:47;5.50;;;5.00;;
12163;SDS011;6145;50.192;10.064;2022-08-14T00:41:14;5.90;;;5.50;;
12163;SDS011;6145;50.192;10.064;2022-08-14T00:43:40;5.57;;;5.17;;
12163;SDS011;6145;50.192;10.064;2022-08-14T00:46:10;5.63;;;5.23;;
12163;SDS011;6145;50.192;10.064;2022-08-14T00:48:39;5.70;;;5.30;;
12163;SDS011;6145;50.192;10.064;2022-08-14T00:51:07;6.30;;;5.90;;
12163;SDS011;6145;50.192;10.064;2022-08-14T00:53:35;6.07;;;5.60;;
12163;SDS011;6145;50.192;10.064;2022-08-14T00:56:04;5.80;;;5.40;;
12163;SDS011;6145;50.192;10.064;2022-08-14T00:58:31;5.57;;;5.17;;
12163;SDS011;6145;50.192;10.064;2022-08-14T01:00:59;5.73;;;5.33;;
12163;SDS011;6145;50.192;10.064;2022-08-14T01:03:28;5.70;;;5.30;;
12163;SDS011;6145;50.192;10.064;2022-08-14T01:05:57;6.20;;;5.80;;
12163;SDS011;6145;50.192;10.064;2022-08-14T01:08:25;6.27;;;5.77;;
12163;SDS011;6145;50.192;10.064;2022-08-14T01:10:54;6.40;;;5.90;;
12163;SDS011;6145;50.192;10.064;2022-08-14T01:13:22;5.93;;;5.53;;
12163;SDS011;6145;50.192;10.064;2022-08-14T01:15:51;5.73;;;5.23;;
12163;SDS011;6145;50.192;10.064;2022-08-14T01:18:20;6.27;;;5.87;;
12163;SDS011;6145;50.192;10.064;2022-08-14T01:21:07;6.13;;;5.63;;
12163;SDS011;6145;50.192;10.064;2022-08-14T01:23:41;5.60;;;5.20;;
12163;SDS011;6145;50.192;10.064;2022-08-14T01:26:09;6.30;;;5.80;;
12163;SDS011;6145;50.192;10.064;2022-08-14T01:28:37;6.20;;;5.73;;
12163;SDS011;6145;50.192;10.064;2022-08-14T01:31:06;6.67;;;6.17;;
12163;SDS011;6145;50.192;10.064;2022-08-14T01:33:36;6.30;;;5.90;;
12163;SDS011;6145;50.192;10.064;2022-08-14T01:36:08;6.27;;;5.87;;
12163;SDS011;6145;50.192;10.064;2022-08-14T01:38:37;6.30;;;5.90;;
12163;SDS011;6145;50.192;10.064;2022-08-14T01:41:10;6.63;;;6.13;;
12163;SDS011;6145;50.192;10.064;2022-08-14T01:43:42;6.20;;;5.70;;
12163;SDS011;6145;50.192;10.064;2022-08-14T01:46:12;6.47;;;5.97;;
12163;SDS011;6145;50.192;10.064;2022-08-14T01:48:41;7.13;;;6.63;;
12163;SDS011;6145;50.192;10.064;2022-08-14T01:51:08;6.40;;;5.90;;
12163;SDS011;6145;50.192;10.064;2022-08-14T01:53:37;6.57;;;6.07;;
12163;SDS011;6145;50.192;10.064;2022-08-14T01:56:06;6.60;;;6.10;;
12163;SDS011;6145;50.192;10.064;2022-08-14T01:58:35;6.93;;;6.37;;
12163;SDS011;6145;50.192;10.064;2022-08-14T02:01:02;6.80;;;6.30;;
12163;SDS011;6145;50.192;10.064;2022-08-14T02:03:30;6.47;;;5.97;;
12163;SDS011;6145;50.192;10.064;2022-08-14T02:06:00;6.40;;;5.90;;
12163;SDS011;6145;50.192;10.064;2022-08-14T02:08:27;6.87;;;6.37;;
12163;SDS011;6145;50.192;10.064;2022-08-14T02:10:55;6.40;;;6.00;;
12163;SDS011;6145;50.192;10.064;2022-08-14T02:13:38;7.10;;;6.60;;
12163;SDS011;6145;50.192;10.064;2022-08-14T02:16:08;6.73;;;6.27;;
12163;SDS011;6145;50.192;10.064;2022-08-14T02:18:35;7.27;;;6.77;;
12163;SDS011;6145;50.192;10.064;2022-08-14T02:21:02;7.00;;;6.50;;
12163;SDS011;6145;50.192;10.064;2022-08-14T02:23:29;6.83;;;6.33;;
12163;SDS011;6145;50.192;10.064;2022-08-14T02:25:56;6.97;;;6.47;;
12163;SDS011;6145;50.192;10.064;2022-08-14T02:28:26;7.47;;;6.97;;
12163;SDS011;6145;50.192;10.064;2022-08-14T02:30:57;7.93;;;7.20;;
12163;SDS011;6145;50.192;10.064;2022-08-14T02:33:24;7.17;;;6.57;;
12163;SDS011;6145;50.192;10.064;2022-08-14T02:35:52;6.97;;;6.47;;
12163;SDS011;6145;50.192;10.064;2022-08-14T02:38:20;6.53;;;5.93;;
12163;SDS011;6145;50.192;10.064;2022-08-14T02:40:47;7.13;;;6.63;;
12163;SDS011;6145;50.192;10.064;2022-08-14T02:43:14;7.30;;;6.77;;
12163;SDS011;6145;50.192;10.064;2022-08-14T02:45:42;7.10;;;6.60;;
12163;SDS011;6145;50.192;10.064;2022-08-14T02:48:11;6.97;;;6.47;;
12163;SDS011;6145;50.192;10.064;2022-08-14T02:50:39;7.60;;;7.00;;
12163;SDS011;6145;50.192;10.064;2022-08-14T02:53:06;7.57;;;6.97;;
12163;SDS011;6145;50.192;10.064;2022-08-14T02:55:32;7.90;;;7.30;;
12163;SDS011;6145;50.192;10.064;2022-08-14T02:57:59;7.07;;;6.47;;
12163;SDS011;6145;50.192;10.064;2022-08-14T03:00:26;7.73;;;7.13;;
12163;SDS011;6145;50.192;10.064;2022-08-14T03:02:53;7.37;;;6.87;;
12163;SDS011;6145;50.192;10.064;2022-08-14T03:05:21;7.57;;;6.97;;
12163;SDS011;6145;50.192;10.064;2022-08-14T03:07:48;7.53;;;6.93;;
12163;SDS011;6145;50.192;10.064;2022-08-14T03:10:15;7.57;;;7.07;;
12163;SDS011;6145;50.192;10.064;2022-08-14T03:12:42;8.07;;;7.37;;
12163;SDS011;6145;50.192;10.064;2022-08-14T03:15:09;7.47;;;6.97;;
12163;SDS011;6145;50.192;10.064;2022-08-14T03:17:38;7.13;;;6.63;;
12163;SDS011;6145;50.192;10.064;2022-08-14T03:20:06;7.77;;;7.17;;
12163;SDS011;6145;50.192;10.064;2022-08-14T03:22:36;7.90;;;7.30;;
12163;SDS011;6145;50.192;10.064;2022-08-14T03:25:04;7.87;;;7.27;;
12163;SDS011;6145;50.192;10.064;2022-08-14T03:27:32;7.23;;;6.73;;
12163;SDS011;6145;50.192;10.064;2022-08-14T03:29:58;7.80;;;7.20;;
12163;SDS011;6145;50.192;10.064;2022-08-14T03:32:27;7.03;;;6.53;;
12163;SDS011;6145;50.192;10.064;2022-08-14T03:34:57;8.03;;;7.33;;
12163;SDS011;6145;50.192;10.064;2022-08-14T03:37:24;7.30;;;6.70;;
12163;SDS011;6145;50.192;10.064;2022-08-14T03:39:52;7.50;;;7.00;;
12163;SDS011;6145;50.192;10.064;2022-08-14T03:42:19;7.83;;;7.23;;
12163;SDS011;6145;50.192;10.064;2022-08-14T03:44:49;7.90;;;7.40;;
12163;SDS011;6145;50.192;10.064;2022-08-14T03:47:16;7.60;;;7.00;;
12163;SDS011;6145;50.192;10.064;2022-08-14T03:49:44;8.20;;;7.60;;
12163;SDS011;6145;50.192;10.064;2022-08-14T03:52:12;8.13;;;7.53;;
12163;SDS011;6145;50.192;10.064;2022-08-14T03:54:39;8.20;;;7.60;;
12163;SDS011;6145;50.192;10.064;2022-08-14T03:57:07;8.67;;;7.97;;
12163;SDS011;6145;50.192;10.064;2022-08-14T03:59:34;8.70;;;8.00;;
12163;SDS011;6145;50.192;10.064;2022-08-14T04:02:01;8.77;;;7.97;;
12163;SDS011;6145;50.192;10.064;2022-08-14T04:04:29;8.60;;;7.90;;
12163;SDS011;6145;50.192;10.064;2022-08-14T04:06:56;9.03;;;8.30;;
12163;SDS011;6145;50.192;10.064;2022-08-14T04:09:26;8.73;;;8.03;;
12163;SDS011;6145;50.192;10.064;2022-08-14T04:11:54;8.70;;;8.03;;
12163;SDS011;6145;50.192;10.064;2022-08-14T04:14:22;8.80;;;8.10;;
12163;SDS011;6145;50.192;10.064;2022-08-14T04:16:49;8.73;;;8.03;;
12163;SDS011;6145;50.192;10.064;2022-08-14T04:19:16;9.17;;;8.37;;
12163;SDS011;6145;50.192;10.064;2022-08-14T04:21:47;9.40;;;8.63;;
12163;SDS011;6145;50.192;10.064;2022-08-14T04:24:15;8.97;;;8.17;;
12163;SDS011;6145;50.192;10.064;2022-08-14T04:26:41;8.90;;;8.20;;
12163;SDS011;6145;50.192;10.064;2022-08-14T04:29:09;8.37;;;7.77;;
12163;SDS011;6145;50.192;10.064;2022-08-14T04:31:38;8.07;;;7.40;;
12163;SDS011;6145;50.192;10.064;2022-08-14T04:34:05;8.33;;;7.63;;
12163;SDS011;6145;50.192;10.064;2022-08-14T04:36:32;8.20;;;7.50;;
12163;SDS011;6145;50.192;10.064;2022-08-14T04:39:19;8.20;;;7.50;;
12163;SDS011;6145;50.192;10.064;2022-08-14T04:42:03;7.93;;;7.37;;
12163;SDS011;6145;50.192;10.064;2022-08-14T04:44:48;8.23;;;7.60;;
12163;SDS011;6145;50.192;10.064;2022-08-14T04:47:17;7.77;;;7.17;;
12163;SDS011;6145;50.192;10.064;2022-08-14T04:50:02;8.20;;;7.60;;
12163;SDS011;6145;50.192;10.064;2022-08-14T04:52:30;8.20;;;7.40;;
12163;SDS011;6145;50.192;10.064;2022-08-14T04:54:57;8.30;;;7.70;;
12163;SDS011;6145;50.192;10.064;2022-08-14T04:57:23;7.77;;;7.20;;
12163;SDS011;6145;50.192;10.064;2022-08-14T04:59:50;8.60;;;7.90;;
12163;SDS011;6145;50.192;10.064;2022-08-14T05:02:19;8.33;;;7.63;;
12163;SDS011;6145;50.192;10.064;2022-08-14T05:04:48;9.23;;;8.53;;
12163;SDS011;6145;50.192;10.064;2022-08-14T05:07:15;9.53;;;8.73;;
12163;SDS011;6145;50.192;10.064;2022-08-14T05:09:42;8.87;;;8.27;;
12163;SDS011;6145;50.192;10.064;2022-08-14T05:12:09;9.17;;;8.37;;
12163;SDS011;6145;50.192;10.064;2022-08-14T05:14:37;8.73;;;8.03;;
12163;SDS011;6145;50.192;10.064;2022-08-14T05:17:04;9.37;;;8.57;;
12163;SDS011;6145;50.192;10.064;2022-08-14T05:19:32;9.30;;;8.60;;
12163;SDS011;6145;50.192;10.064;2022-08-14T05:21:59;8.90;;;8.20;;
12163;SDS011;6145;50.192;10.064;2022-08-14T05:24:26;8.60;;;7.90;;
12163;SDS011;6145;50.192;10.064;2022-08-14T05:26:53;9.20;;;8.47;;
12163;SDS011;6145;50.192;10.064;2022-08-14T05:29:20;9.27;;;8.57;;
12163;SDS011;6145;50.192;10.064;2022-08-14T05:31:47;9.33;;;8.63;;
12163;SDS011;6145;50.192;10.064;2022-08-14T05:34:14;8.57;;;7.97;;
12163;SDS011;6145;50.192;10.064;2022-08-14T05:36:42;9.40;;;8.60;;
12163;SDS011;6145;50.192;10.064;2022-08-14T05:39:09;10.03;;;9.27;;
12163;SDS011;6145;50.192;10.064;2022-08-14T05:41:36;9.20;;;8.50;;
12163;SDS011;6145;50.192;10.064;2022-08-14T05:44:02;9.33;;;8.63;;
12163;SDS011;6145;50.192;10.064;2022-08-14T05:46:29;10.00;;;9.20;;
12163;SDS011;6145;50.192;10.064;2022-08-14T05:48:56;9.73;;;9.03;;
12163;SDS011;6145;50.192;10.064;2022-08-14T05:51:24;9.13;;;8.43;;
12163;SDS011;6145;50.192;10.064;2022-08-14T05:53:54;10.30;;;9.50;;
12163;SDS011;6145;50.192;10.064;2022-08-14T05:56:21;10.70;;;9.73;;
12163;SDS011;6145;50.192;10.064;2022-08-14T05:58:49;9.97;;;9.27;;
12163;SDS011;6145;50.192;10.064;2022-08-14T06:01:16;9.83;;;9.10;;
12163;SDS011;6145;50.192;10.064;2022-08-14T06:03:43;10.37;;;9.47;;
12163;SDS011;6145;50.192;10.064;2022-08-14T06:06:10;10.60;;;9.80;;
12163;SDS011;6145;50.192;10.064;2022-08-14T06:08:36;9.90;;;9.20;;
12163;SDS011;6145;50.192;10.064;2022-08-14T06:11:05;10.73;;;9.93;;
12163;SDS011;6145;50.192;10.064;2022-08-14T06:16:55;11.20;;;10.20;;
12163;SDS011;6145;50.192;10.064;2022-08-14T06:19:22;11.47;;;10.43;;
12163;SDS011;6145;50.192;10.064;2022-08-14T06:21:49;9.97;;;9.17;;
12163;SDS011;6145;50.192;10.064;2022-08-14T06:24:16;10.20;;;9.50;;
12163;SDS011;6145;50.192;10.064;2022-08-14T06:26:44;10.43;;;9.67;;
12163;SDS011;6145;50.192;10.064;2022-08-14T06:29:11;9.43;;;8.73;;
12163;SDS011;6145;50.192;10.064;2022-08-14T06:31:38;9.77;;;9.07;;
12163;SDS011;6145;50.192;10.064;2022-08-14T06:34:04;10.23;;;9.53;;
12163;SDS011;6145;50.192;10.064;2022-08-14T06:36:31;9.98;;;9.27;;
12163;SDS011;6145;50.192;10.064;2022-08-14T06:39:02;9.88;;;9.07;;
12163;SDS011;6145;50.192;10.064;2022-08-14T06:41:29;9.75;;;8.95;;
12163;SDS011;6145;50.192;10.064;2022-08-14T06:43:57;10.60;;;9.80;;
12163;SDS011;6145;50.192;10.064;2022-08-14T06:46:27;9.45;;;8.85;;
12163;SDS011;6145;50.192;10.064;2022-08-14T06:48:55;9.50;;;8.82;;
12163;SDS011;6145;50.192;10.064;2022-08-14T06:51:21;9.70;;;9.00;;
12163;SDS011;6145;50.192;10.064;2022-08-14T06:53:48;8.95;;;8.35;;
12163;SDS011;6145;50.192;10.064;2022-08-14T06:56:15;9.50;;;8.80;;
12163;SDS011;6145;50.192;10.064;2022-08-14T06:58:42;9.52;;;8.82;;
12163;SDS011;6145;50.192;10.064;2022-08-14T07:01:10;9.10;;;8.40;;
12163;SDS011;6145;50.192;10.064;2022-08-14T07:03:54;9.43;;;8.73;;
12163;SDS011;6145;50.192;10.064;2022-08-14T07:06:39;9.52;;;8.93;;
12163;SDS011;6145;50.192;10.064;2022-08-14T07:09:06;9.45;;;8.82;;
12163;SDS011;6145;50.192;10.064;2022-08-14T07:11:36;8.70;;;8.10;;
12163;SDS011;6145;50.192;10.064;2022-08-14T07:14:03;8.13;;;7.63;;
12163;SDS011;6145;50.192;10.064;2022-08-14T07:16:31;8.80;;;8.20;;
12163;SDS011;6145;50.192;10.064;2022-08-14T07:18:58;9.50;;;8.80;;
12163;SDS011;6145;50.192;10.064;2022-08-14T07:21:24;8.32;;;7.78;;
12163;SDS011;6145;50.192;10.064;2022-08-14T07:23:51;7.90;;;7.30;;
12163;SDS011;6145;50.192;10.064;2022-08-14T07:26:18;8.25;;;7.65;;
12163;SDS011;6145;50.192;10.064;2022-08-14T07:28:45;8.10;;;7.50;;
12163;SDS011;6145;50.192;10.064;2022-08-14T07:31:11;8.25;;;7.65;;
12163;SDS011;6145;50.192;10.064;2022-08-14T07:33:40;7.45;;;6.95;;
12163;SDS011;6145;50.192;10.064;2022-08-14T07:36:10;7.95;;;7.43;;
12163;SDS011;6145;50.192;10.064;2022-08-14T07:38:38;7.18;;;6.68;;
12163;SDS011;6145;50.192;10.064;2022-08-14T07:41:06;7.82;;;7.22;;
12163;SDS011;6145;50.192;10.064;2022-08-14T07:43:34;7.70;;;7.20;;
12163;SDS011;6145;50.192;10.064;2022-08-14T07:46:02;7.75;;;7.18;;
12163;SDS011;6145;50.192;10.064;2022-08-14T07:48:29;7.32;;;6.78;;
12163;SDS011;6145;50.192;10.064;2022-08-14T07:50:57;6.82;;;6.43;;
12163;SDS011;6145;50.192;10.064;2022-08-14T07:53:24;7.03;;;6.53;;
12163;SDS011;6145;50.192;10.064;2022-08-14T07:55:51;7.25;;;6.68;;
12163;SDS011;6145;50.192;10.064;2022-08-14T07:58:18;6.53;;;6.13;;
12163;SDS011;6145;50.192;10.064;2022-08-14T08:00:44;6.97;;;6.43;;
12163;SDS011;6145;50.192;10.064;2022-08-14T08:03:11;6.90;;;6.40;;
12163;SDS011;6145;50.192;10.064;2022-08-14T08:05:39;6.35;;;5.95;;
12163;SDS011;6145;50.192;10.064;2022-08-14T08:08:08;6.32;;;5.93;;
12163;SDS011;6145;50.192;10.064;2022-08-14T08:10:36;6.25;;;5.82;;
12163;SDS011;6145;50.192;10.064;2022-08-14T08:13:06;6.22;;;5.72;;
12163;SDS011;6145;50.192;10.064;2022-08-14T08:15:36;5.90;;;5.50;;
12163;SDS011;6145;50.192;10.064;2022-08-14T08:18:05;6.03;;;5.63;;
12163;SDS011;6145;50.192;10.064;2022-08-14T08:20:35;6.07;;;5.63;;
12163;SDS011;6145;50.192;10.064;2022-08-14T08:23:04;6.05;;;5.65;;
12163;SDS011;6145;50.192;10.064;2022-08-14T08:25:34;5.88;;;5.53;;
12163;SDS011;6145;50.192;10.064;2022-08-14T08:28:03;6.40;;;5.90;;
12163;SDS011;6145;50.192;10.064;2022-08-14T08:30:33;5.47;;;5.15;;
12163;SDS011;6145;50.192;10.064;2022-08-14T08:33:02;6.20;;;5.80;;
12163;SDS011;6145;50.192;10.064;2022-08-14T08:35:32;5.45;;;5.07;;
12163;SDS011;6145;50.192;10.064;2022-08-14T08:38:00;5.35;;;5.05;;
12163;SDS011;6145;50.192;10.064;2022-08-14T08:40:30;5.82;;;5.32;;
12163;SDS011;6145;50.192;10.064;2022-08-14T08:43:01;5.25;;;4.95;;
12163;SDS011;6145;50.192;10.064;2022-08-14T08:45:31;5.03;;;4.63;;
12163;SDS011;6145;50.192;10.064;2022-08-14T08:47:58;5.10;;;4.80;;
12163;SDS011;6145;50.192;10.064;2022-08-14T08:50:27;5.15;;;4.75;;
12163;SDS011;6145;50.192;10.064;2022-08-14T08:52:56;6.18;;;4.93;;
12163;SDS011;6145;50.192;10.064;2022-08-14T08:55:27;4.60;;;4.20;;
12163;SDS011;6145;50.192;10.064;2022-08-14T08:57:59;4.90;;;4.57;;
12163;SDS011;6145;50.192;10.064;2022-08-14T09:00:29;4.32;;;4.13;;
12163;SDS011;6145;50.192;10.064;2022-08-14T09:02:58;4.80;;;4.40;;
12163;SDS011;6145;50.192;10.064;2022-08-14T09:05:29;4.40;;;4.10;;
12163;SDS011;6145;50.192;10.064;2022-08-14T09:08:10;5.00;;;4.60;;
12163;SDS011;6145;50.192;10.064;2022-08-14T09:10:37;4.60;;;4.28;;
12163;SDS011;6145;50.192;10.064;2022-08-14T09:13:06;4.20;;;3.95;;
12163;SDS011;6145;50.192;10.064;2022-08-14T09:15:36;4.18;;;3.88;;
12163;SDS011;6145;50.192;10.064;2022-08-14T09:18:04;4.22;;;3.95;;
12163;SDS011;6145;50.192;10.064;2022-08-14T09:20:31;4.28;;;3.97;;
12163;SDS011;6145;50.192;10.064;2022-08-14T09:22:58;3.63;;;3.42;;
12163;SDS011;6145;50.192;10.064;2022-08-14T09:25:25;4.40;;;4.00;;
12163;SDS011;6145;50.192;10.064;2022-08-14T09:27:52;3.95;;;3.75;;
12163;SDS011;6145;50.192;10.064;2022-08-14T09:30:22;4.32;;;3.95;;
12163;SDS011;6145;50.192;10.064;2022-08-14T09:32:54;3.95;;;3.65;;
12163;SDS011;6145;50.192;10.064;2022-08-14T09:35:29;3.80;;;3.50;;
12163;SDS011;6145;50.192;10.064;2022-08-14T09:38:03;4.00;;;3.70;;
12163;SDS011;6145;50.192;10.064;2022-08-14T09:40:38;3.97;;;3.78;;
12163;SDS011;6145;50.192;10.064;2022-08-14T09:43:17;4.20;;;3.90;;
12163;SDS011;6145;50.192;10.064;2022-08-14T09:45:56;3.70;;;3.40;;
12163;SDS011;6145;50.192;10.064;2022-08-14T09:48:24;4.00;;;3.80;;
12163;SDS011;6145;50.192;10.064;2022-08-14T09:50:53;4.15;;;3.83;;
12163;SDS011;6145;50.192;10.064;2022-08-14T09:53:33;4.35;;;4.05;;
12163;SDS011;6145;50.192;10.064;2022-08-14T09:56:07;3.72;;;3.53;;
12163;SDS011;6145;50.192;10.064;2022-08-14T09:58:36;3.83;;;3.58;;
12163;SDS011;6145;50.192;10.064;2022-08-14T10:01:10;3.78;;;3.55;;
12163;SDS011;6145;50.192;10.064;2022-08-14T10:03:49;3.75;;;3.55;;
12163;SDS011;6145;50.192;10.064;2022-08-14T10:06:19;4.13;;;3.83;;
12163;SDS011;6145;50.192;10.064;2022-08-14T10:08:52;3.97;;;3.78;;
12163;SDS011;6145;50.192;10.064;2022-08-14T10:11:23;4.13;;;3.72;;
12163;SDS011;6145;50.192;10.064;2022-08-14T10:13:53;3.72;;;3.53;;
12163;SDS011;6145;50.192;10.064;2022-08-14T10:16:25;3.53;;;3.33;;
12163;SDS011;6145;50.192;10.064;2022-08-14T10:19:01;4.03;;;3.72;;
12163;SDS011;6145;50.192;10.064;2022-08-14T10:21:31;4.30;;;4.00;;
12163;SDS011;6145;50.192;10.064;2022-08-14T10:23:59;4.40;;;4.10;;
12163;SDS011;6145;50.192;10.064;2022-08-14T10:26:26;4.25;;;3.95;;
12163;SDS011;6145;50.192;10.064;2022-08-14T10:28:53;3.83;;;3.53;;
12163;SDS011;6145;50.192;10.064;2022-08-14T10:31:31;3.97;;;3.67;;
12163;SDS011;6145;50.192;10.064;2022-08-14T10:33:59;3.45;;;3.25;;
12163;SDS011;6145;50.192;10.064;2022-08-14T10:36:28;3.95;;;3.75;;
12163;SDS011;6145;50.192;10.064;2022-08-14T10:38:57;4.10;;;3.80;;
12163;SDS011;6145;50.192;10.064;2022-08-14T10:41:35;4.32;;;3.97;;
12163;SDS011;6145;50.192;10.064;2022-08-14T10:44:06;4.15;;;3.85;;
12163;SDS011;6145;50.192;10.064;2022-08-14T10:46:40;4.70;;;4.30;;
12163;SDS011;6145;50.192;10.064;2022-08-14T10:49:15;4.65;;;4.35;;
12163;SDS011;6145;50.192;10.064;2022-08-14T10:51:53;3.55;;;3.35;;
12163;SDS011;6145;50.192;10.064;2022-08-14T10:54:34;4.20;;;3.90;;
12163;SDS011;6145;50.192;10.064;2022-08-14T10:57:16;4.20;;;3.92;;
12163;SDS011;6145;50.192;10.064;2022-08-14T10:59:46;4.40;;;4.10;;
12163;SDS011;6145;50.192;10.064;2022-08-14T11:02:20;4.30;;;3.95;;
12163;SDS011;6145;50.192;10.064;2022-08-14T11:04:59;3.90;;;3.60;;
12163;SDS011;6145;50.192;10.064;2022-08-14T11:07:29;3.95;;;3.75;;
12163;SDS011;6145;50.192;10.064;2022-08-14T11:09:57;4.50;;;4.20;;
12163;SDS011;6145;50.192;10.064;2022-08-14T11:12:37;3.80;;;3.53;;
12163;SDS011;6145;50.192;10.064;2022-08-14T11:15:10;3.65;;;3.45;;
12163;SDS011;6145;50.192;10.064;2022-08-14T11:17:39;3.72;;;3.42;;
12163;SDS011;6145;50.192;10.064;2022-08-14T11:20:07;4.20;;;4.00;;
12163;SDS011;6145;50.192;10.064;2022-08-14T11:22:35;4.20;;;3.80;;
12163;SDS011;6145;50.192;10.064;2022-08-14T11:25:06;3.72;;;3.53;;
12163;SDS011;6145;50.192;10.064;2022-08-14T11:27:38;4.35;;;4.00;;
12163;SDS011;6145;50.192;10.064;2022-08-14T11:30:07;3.55;;;3.25;;
12163;SDS011;6145;50.192;10.064;2022-08-14T11:32:35;3.80;;;3.50;;
12163;SDS011;6145;50.192;10.064;2022-08-14T11:35:10;3.80;;;3.58;;
12163;SDS011;6145;50.192;10.064;2022-08-14T11:37:47;3.75;;;3.55;;
12163;SDS011;6145;50.192;10.064;2022-08-14T11:40:15;3.78;;;3.58;;
12163;SDS011;6145;50.192;10.064;2022-08-14T11:42:47;3.63;;;3.42;;
12163;SDS011;6145;50.192;10.064;2022-08-14T11:45:27;4.32;;;3.92;;
12163;SDS011;6145;50.192;10.064;2022-08-14T11:48:01;4.22;;;3.80;;
12163;SDS011;6145;50.192;10.064;2022-08-14T11:50:45;4.03;;;3.72;;
12163;SDS011;6145;50.192;10.064;2022-08-14T11:53:20;4.30;;;4.00;;
12163;SDS011;6145;50.192;10.064;2022-08-14T11:55:53;3.88;;;3.60;;
12163;SDS011;6145;50.192;10.064;2022-08-14T11:58:28;4.20;;;3.90;;
12163;SDS011;6145;50.192;10.064;2022-08-14T12:01:01;3.97;;;3.78;;
12163;SDS011;6145;50.192;10.064;2022-08-14T12:03:39;4.15;;;3.85;;
12163;SDS011;6145;50.192;10.064;2022-08-14T12:06:12;4.35;;;4.05;;
12163;SDS011;6145;50.192;10.064;2022-08-14T12:08:41;4.35;;;4.05;;
12163;SDS011;6145;50.192;10.064;2022-08-14T12:11:08;3.70;;;3.50;;
12163;SDS011;6145;50.192;10.064;2022-08-14T12:13:37;4.20;;;3.90;;
12163;SDS011;6145;50.192;10.064;2022-08-14T12:16:05;4.05;;;3.75;;
12163;SDS011;6145;50.192;10.064;2022-08-14T12:18:35;4.70;;;3.78;;
12163;SDS011;6145;50.192;10.064;2022-08-14T12:21:12;4.65;;;4.28;;
12163;SDS011;6145;50.192;10.064;2022-08-14T12:23:42;4.20;;;3.90;;
12163;SDS011;6145;50.192;10.064;2022-08-14T12:26:12;4.75;;;4.43;;
12163;SDS011;6145;50.192;10.064;2022-08-14T12:28:42;4.32;;;3.92;;
12163;SDS011;6145;50.192;10.064;2022-08-14T12:31:12;4.20;;;3.80;;
12163;SDS011;6145;50.192;10.064;2022-08-14T12:33:40;4.20;;;3.90;;
12163;SDS011;6145;50.192;10.064;2022-08-14T12:36:10;4.82;;;4.35;;
12163;SDS011;6145;50.192;10.064;2022-08-14T12:38:46;4.30;;;4.00;;
12163;SDS011;6145;50.192;10.064;2022-08-14T12:41:15;4.30;;;4.00;;
12163;SDS011;6145;50.192;10.064;2022-08-14T12:43:45;4.40;;;4.10;;
12163;SDS011;6145;50.192;10.064;2022-08-14T12:46:21;4.53;;;4.20;;
12163;SDS011;6145;50.192;10.064;2022-08-14T12:48:49;4.38;;;4.07;;
12163;SDS011;6145;50.192;10.064;2022-08-14T12:51:22;4.38;;;4.07;;
12163;SDS011;6145;50.192;10.064;2022-08-14T12:53:54;4.35;;;4.05;;
12163;SDS011;6145;50.192;10.064;2022-08-14T12:56:22;4.40;;;4.10;;
12163;SDS011;6145;50.192;10.064;2022-08-14T12:58:55;4.75;;;3.95;;
12163;SDS011;6145;50.192;10.064;2022-08-14T13:01:24;4.30;;;4.00;;
12163;SDS011;6145;50.192;10.064;2022-08-14T13:04:02;4.65;;;4.25;;
12163;SDS011;6145;50.192;10.064;2022-08-14T13:06:32;4.07;;;3.78;;
12163;SDS011;6145;50.192;10.064;2022-08-14T13:09:00;4.45;;;4.15;;
12163;SDS011;6145;50.192;10.064;2022-08-14T13:11:28;4.30;;;3.90;;
12163;SDS011;6145;50.192;10.064;2022-08-14T13:14:02;4.18;;;3.88;;
12163;SDS011;6145;50.192;10.064;2022-08-14T13:16:29;4.05;;;3.75;;
12163;SDS011;6145;50.192;10.064;2022-08-14T13:18:56;4.45;;;4.15;;
12163;SDS011;6145;50.192;10.064;2022-08-14T13:21:25;4.20;;;3.90;;
12163;SDS011;6145;50.192;10.064;2022-08-14T13:23:53;4.15;;;3.85;;
12163;SDS011;6145;50.192;10.064;2022-08-14T13:26:22;4.10;;;3.80;;
12163;SDS011;6145;50.192;10.064;2022-08-14T13:28:49;3.95;;;3.65;;
12163;SDS011;6145;50.192;10.064;2022-08-14T13:31:17;4.28;;;3.97;;
12163;SDS011;6145;50.192;10.064;2022-08-14T13:33:47;4.10;;;3.78;;
12163;SDS011;6145;50.192;10.064;2022-08-14T13:36:15;4.07;;;3.78;;
12163;SDS011;6145;50.192;10.064;2022-08-14T13:38:42;4.22;;;3.92;;
12163;SDS011;6145;50.192;10.064;2022-08-14T13:41:10;4.15;;;3.80;;
12163;SDS011;6145;50.192;10.064;2022-08-14T13:43:37;3.90;;;3.70;;
12163;SDS011;6145;50.192;10.064;2022-08-14T13:46:05;4.20;;;3.90;;
12163;SDS011;6145;50.192;10.064;2022-08-14T13:48:32;4.30;;;4.00;;
12163;SDS011;6145;50.192;10.064;2022-08-14T13:51:02;4.40;;;4.00;;
12163;SDS011;6145;50.192;10.064;2022-08-14T13:53:31;4.25;;;3.97;;
12163;SDS011;6145;50.192;10.064;2022-08-14T13:56:08;4.38;;;4.07;;
12163;SDS011;6145;50.192;10.064;2022-08-14T13:58:38;4.20;;;3.90;;
12163;SDS011;6145;50.192;10.064;2022-08-14T14:01:07;4.55;;;4.15;;
12163;SDS011;6145;50.192;10.064;2022-08-14T14:03:35;4.50;;;4.20;;
12163;SDS011;6145;50.192;10.064;2022-08-14T14:06:03;3.60;;;3.30;;
12163;SDS011;6145;50.192;10.064;2022-08-14T14:08:32;4.28;;;3.97;;
12163;SDS011;6145;50.192;10.064;2022-08-14T14:11:02;3.95;;;3.67;;
12163;SDS011;6145;50.192;10.064;2022-08-14T14:13:31;3.90;;;3.53;;
12163;SDS011;6145;50.192;10.064;2022-08-14T14:15:58;4.10;;;3.88;;
12163;SDS011;6145;50.192;10.064;2022-08-14T14:18:29;4.10;;;3.78;;
12163;SDS011;6145;50.192;10.064;2022-08-14T14:20:58;3.58;;;3.38;;
12163;SDS011;6145;50.192;10.064;2022-08-14T14:23:26;3.72;;;3.42;;
12163;SDS011;6145;50.192;10.064;2022-08-14T14:25:55;4.03;;;3.75;;
12163;SDS011;6145;50.192;10.064;2022-08-14T14:28:23;3.90;;;3.60;;
12163;SDS011;6145;50.192;10.064;2022-08-14T14:30:56;4.13;;;3.88;;
12163;SDS011;6145;50.192;10.064;2022-08-14T14:33:25;4.05;;;3.75;;
12163;SDS011;6145;50.192;10.064;2022-08-14T14:35:52;3.80;;;3.58;;
12163;SDS011;6145;50.192;10.064;2022-08-14T14:38:19;4.57;;;3.85;;
12163;SDS011;6145;50.192;10.064;2022-08-14T14:40:50;4.13;;;3.83;;
12163;SDS011;6145;50.192;10.064;2022-08-14T14:43:17;4.30;;;4.00;;
12163;SDS011;6145;50.192;10.064;2022-08-14T14:45:44;4.03;;;3.83;;
12163;SDS011;6145;50.192;10.064;2022-08-14T14:48:15;3.80;;;3.60;;
12163;SDS011;6145;50.192;10.064;2022-08-14T14:50:44;3.60;;;3.40;;
12163;SDS011;6145;50.192;10.064;2022-08-14T14:53:15;4.18;;;3.88;;
12163;SDS011;6145;50.192;10.064;2022-08-14T14:55:43;4.30;;;4.00;;
12163;SDS011;6145;50.192;10.064;2022-08-14T14:58:10;4.57;;;4.28;;
12163;SDS011;6145;50.192;10.064;2022-08-14T15:00:39;3.95;;;3.75;;
12163;SDS011;6145;50.192;10.064;2022-08-14T15:03:07;4.13;;;3.83;;
12163;SDS011;6145;50.192;10.064;2022-08-14T15:05:35;4.07;;;3.78;;